Decoded Metar for KGLD (GOODLAND in KS, USA) (IATA:GLD) | Meteo·Mobile Aviation Weather
aviador You're here:

KGLD Decoded Metar

GOODLAND in KS, USA
Report Time2019-02-16 07:23:00
UTC Time2019-02-16 07:49:31
Flight Rules lifr LIFR
Wind170° at 17 Gusting to 21 kt
W.Decomp.*RWY 17: 16.8 kt HW 2.7 kt LCW
RWY 12: 12.8 kt HW 11.2 kt RCW
RWY 23: 6.1 kt HW 15.9 kt LCW
W.Rank170° ranks 2
Current wind is above 170° avg. (12.1)
Visibility9999 m
Phenomena:N/A
Clouds:Overcast 004 Hf
Expected CloudBase > 400 ft AGL from Temp-Dew spread
Ceiling400 ft
Temp-8°C (ISA -16)
Dew Point-9°C (93% RH)
AAT-17.1°C
QNH1010 hPa
Density Alt1,870 ft
Elevation3,652 ft
Report Wrong Elevation
Raw Report
KGLD 160723Z AUTO 17017G21KT 10SM OVC004 M08/M09 A2983 RMK AO2
T10831094=

Extra information for KGLD:More info

Metar Taf Metar & Taf Last 4 Metars F.Rules Stats Wind Profile Meteogram Temp Stats Airport Information Weather charts Add Link Nearby VenuesMetar ALERT Operation Metar Decoded Social comments

AIRNAV info for KGLD